KMAF

Midland International Air and Space Port Airport

Midland, Texas, USA
METAR KMAF 270653Z AUTO 17008KT 10SM CLR 28/11 A2981 RMK AO2 SLP034 T02780106
Observed Flight Rules
May-27 @ 06:53 UTC (57 minutes ago) Visual Flight Rules
Wind Visibility Clouds
170° at 8 knots 10 miles
  • Clear skies
Temperatures Readings
Current 28°C / 82°F
Dewpoint 11°C / 52°F
Humidity 35%
Altimeter 29.81" Hg
Pressure 1003.4 hPa
Elevation 874
METAR KMAF 270653Z AUTO 17008KT 10SM CLR 28/11 A2981 RMK AO2 SLP034 T02780106
Observed Flight Rules
May-27 @ 06:53 UTC
(57 minutes ago)
VFR
Wind Visibility
170° at 8 knots 10 miles
Clouds
  • Clear skies
Temperature Dewpoint
28°C / 82°F 11°C / 52°F
Humidity Altimeter Pressure
35% 29.81" Hg 1003.4 hPa